createdAt,value
2019-06-10T00:00:45.332Z,916.71
2019-06-10T00:01:45.289Z,916.70
2019-06-10T00:02:45.278Z,916.72
2019-06-10T00:03:45.397Z,916.71
2019-06-10T00:04:45.198Z,916.75
2019-06-10T00:05:45.152Z,916.73
2019-06-10T00:06:45.102Z,916.72
2019-06-10T00:07:45.106Z,916.76
2019-06-10T00:08:45.064Z,916.77
2019-06-10T00:09:45.027Z,916.76
2019-06-10T00:10:44.968Z,916.78
2019-06-10T00:11:44.943Z,916.80
2019-06-10T00:12:44.927Z,916.79
2019-06-10T00:13:44.906Z,916.78
2019-06-10T00:14:44.842Z,916.81
2019-06-10T00:15:44.822Z,916.80
2019-06-10T00:16:44.784Z,916.80
2019-06-10T00:17:55.068Z,916.80
2019-06-10T00:18:45.795Z,916.81
2019-06-10T00:19:44.700Z,916.82
2019-06-10T00:20:44.651Z,916.82
2019-06-10T00:21:44.591Z,916.85
2019-06-10T00:22:44.585Z,916.82
2019-06-10T00:23:44.564Z,916.85
2019-06-10T00:24:44.510Z,916.87
2019-06-10T00:25:44.465Z,916.87
2019-06-10T00:26:44.437Z,916.88
2019-06-10T00:27:44.408Z,916.89
2019-06-10T00:28:44.363Z,916.93
2019-06-10T00:29:44.320Z,916.90
2019-06-10T00:30:44.310Z,916.94
2019-06-10T00:31:44.276Z,916.93
2019-06-10T00:32:44.267Z,916.92
2019-06-10T00:33:44.208Z,916.92
2019-06-10T00:34:44.179Z,916.89
2019-06-10T00:36:44.099Z,916.97
2019-06-10T00:37:44.076Z,916.94
2019-06-10T00:38:44.028Z,916.93
2019-06-10T00:39:44.010Z,916.92
2019-06-10T00:40:43.940Z,916.90
2019-06-10T00:41:43.935Z,916.96
2019-06-10T00:42:43.886Z,916.93
2019-06-10T00:43:43.840Z,916.95
2019-06-10T00:44:43.840Z,916.95
2019-06-10T00:45:43.768Z,916.95
2019-06-10T00:46:43.739Z,916.93
2019-06-10T00:47:43.701Z,917.00
2019-06-10T00:48:43.667Z,916.97
2019-06-10T00:49:43.832Z,916.99
2019-06-10T00:50:43.596Z,916.98
2019-06-10T00:51:43.587Z,916.93
2019-06-10T00:52:45.441Z,916.94
2019-06-10T00:53:43.495Z,916.93
2019-06-10T00:54:43.463Z,916.95
2019-06-10T00:55:43.631Z,916.91
2019-06-10T00:56:43.487Z,916.90
2019-06-10T00:57:43.352Z,916.90
2019-06-10T00:58:43.334Z,916.89
2019-06-10T00:59:43.312Z,916.88
2019-06-10T01:00:43.256Z,916.91
2019-06-10T01:01:43.330Z,916.87
2019-06-10T01:02:43.212Z,916.87
2019-06-10T01:03:43.158Z,916.88
2019-06-10T01:04:43.148Z,916.82
2019-06-10T01:05:43.103Z,916.85
2019-06-10T01:06:43.065Z,916.84
2019-06-10T01:07:43.012Z,916.87
2019-06-10T01:08:42.995Z,916.86
2019-06-10T01:09:42.955Z,916.86
2019-06-10T01:10:44.167Z,916.85
2019-06-10T01:11:42.918Z,916.87
2019-06-10T01:13:42.838Z,916.89
2019-06-10T01:14:42.765Z,916.88
2019-06-10T01:15:42.755Z,916.89
2019-06-10T01:16:42.737Z,916.87
2019-06-10T01:17:42.690Z,916.89
2019-06-10T01:18:42.679Z,916.92
2019-06-10T01:19:42.640Z,916.93
2019-06-10T01:20:42.596Z,916.93
2019-06-10T01:21:42.551Z,916.97
2019-06-10T01:22:42.507Z,916.94
2019-06-10T01:23:42.481Z,916.93
2019-06-10T01:24:42.497Z,916.92
2019-06-10T01:25:42.767Z,916.90
2019-06-10T01:26:42.374Z,916.94
2019-06-10T01:27:42.334Z,916.91
2019-06-10T01:28:42.303Z,916.90
2019-06-10T01:29:42.275Z,916.93
2019-06-10T01:30:42.225Z,916.89
2019-06-10T01:31:42.212Z,916.87
2019-06-10T01:32:42.174Z,916.88
2019-06-10T01:33:42.144Z,916.87
2019-06-10T01:34:42.100Z,916.85
2019-06-10T01:35:42.040Z,916.86
2019-06-10T01:36:42.005Z,916.85
2019-06-10T01:37:41.990Z,916.84
2019-06-10T01:38:41.949Z,916.79
2019-06-10T01:39:41.927Z,916.83
2019-06-10T01:40:42.380Z,916.83
2019-06-10T01:41:41.873Z,916.84
2019-06-10T01:42:41.830Z,916.85
2019-06-10T01:43:41.781Z,916.88
2019-06-10T01:44:42.046Z,916.84
2019-06-10T01:45:41.962Z,916.85
2019-06-10T01:46:41.657Z,916.88
2019-06-10T01:47:41.768Z,916.87
2019-06-10T01:48:47.245Z,916.86
2019-06-10T01:49:41.557Z,916.87
2019-06-10T01:50:41.634Z,916.85
2019-06-10T01:51:41.539Z,916.84
2019-06-10T01:52:41.472Z,916.85
2019-06-10T01:53:41.542Z,916.84
2019-06-10T01:54:42.038Z,916.83
2019-06-10T01:55:41.968Z,916.86
2019-06-10T01:56:41.337Z,916.85
2019-06-10T01:57:41.416Z,916.85
2019-06-10T01:58:41.275Z,916.87
2019-06-10T01:59:41.368Z,916.87
2019-06-10T02:00:41.824Z,916.86
2019-06-10T02:01:41.399Z,916.85
2019-06-10T02:02:44.550Z,916.87
2019-06-10T02:03:41.494Z,916.85
2019-06-10T02:04:41.182Z,916.89
2019-06-10T02:05:41.922Z,916.87
2019-06-10T02:06:41.006Z,916.90
2019-06-10T02:07:41.082Z,916.88
2019-06-10T02:08:41.806Z,916.91
2019-06-10T02:09:41.111Z,916.92
2019-06-10T02:10:41.529Z,916.89
2019-06-10T02:11:41.422Z,916.89
2019-06-10T02:12:41.584Z,916.91
2019-06-10T02:13:40.970Z,916.90
2019-06-10T02:14:41.652Z,916.92
2019-06-10T02:15:41.040Z,916.89
2019-06-10T02:16:41.426Z,916.91
2019-06-10T02:17:41.692Z,916.91
2019-06-10T02:18:42.247Z,916.94
2019-06-10T02:19:41.462Z,916.94
2019-06-10T02:20:41.228Z,916.96
2019-06-10T02:21:41.740Z,916.95
2019-06-10T02:22:41.157Z,916.92
2019-06-10T02:23:41.223Z,916.93
2019-06-10T02:24:41.692Z,916.94
2019-06-10T02:25:41.221Z,916.93
2019-06-10T02:26:41.048Z,916.92
2019-06-10T02:28:40.678Z,916.91
2019-06-10T02:29:41.215Z,916.91
2019-06-10T02:30:49.862Z,916.94
2019-06-10T02:31:43.149Z,916.91
2019-06-10T02:32:42.579Z,916.90
2019-06-10T02:33:41.997Z,916.91
2019-06-10T02:34:53.244Z,916.92
2019-06-10T02:35:45.689Z,916.91
2019-06-10T02:36:39.918Z,916.92
2019-06-10T02:37:44.041Z,916.92
2019-06-10T02:39:39.853Z,916.93
2019-06-10T02:40:42.985Z,916.87
2019-06-10T02:41:39.873Z,916.91
2019-06-10T02:42:43.335Z,916.91
2019-06-10T02:43:39.668Z,916.90
2019-06-10T02:44:39.652Z,916.96
2019-06-10T02:45:39.629Z,916.93
2019-06-10T02:46:39.601Z,916.90
2019-06-10T02:47:39.552Z,916.94
2019-06-10T02:48:39.749Z,916.95
2019-06-10T02:49:52.636Z,916.93
2019-06-10T02:50:39.453Z,916.93
2019-06-10T02:51:39.522Z,916.93
2019-06-10T02:52:39.375Z,916.93
2019-06-10T02:53:39.336Z,916.93
2019-06-10T02:55:39.266Z,916.95
2019-06-10T02:56:39.207Z,916.93
2019-06-10T02:57:40.501Z,916.92
2019-06-10T02:58:40.067Z,916.92
2019-06-10T03:00:44.607Z,916.87
2019-06-10T03:01:39.047Z,916.91
2019-06-10T03:02:39.022Z,916.91
2019-06-10T03:03:44.591Z,916.91
2019-06-10T03:04:38.954Z,916.92
2019-06-10T03:05:41.043Z,916.89
2019-06-10T03:06:40.332Z,916.89
2019-06-10T03:07:38.831Z,916.91
2019-06-10T03:08:38.823Z,916.94
2019-06-10T03:09:38.796Z,916.90
2019-06-10T03:10:38.751Z,916.91
2019-06-10T03:11:38.731Z,916.88
2019-06-10T03:12:38.672Z,916.85
2019-06-10T03:13:38.644Z,916.91
2019-06-10T03:14:38.588Z,916.89
2019-06-10T03:15:38.737Z,916.94
2019-06-10T03:16:38.832Z,916.90
2019-06-10T03:17:38.478Z,916.91
2019-06-10T03:18:38.456Z,916.89
2019-06-10T03:19:47.830Z,916.85
2019-06-10T03:20:38.369Z,916.90
2019-06-10T03:21:38.360Z,916.91
2019-06-10T03:22:38.560Z,916.87
2019-06-10T03:23:38.321Z,916.92
2019-06-10T03:24:38.244Z,916.87
2019-06-10T03:25:38.213Z,916.90
2019-06-10T03:26:38.152Z,916.89
2019-06-10T03:27:38.292Z,916.88
2019-06-10T03:28:38.095Z,916.88
2019-06-10T03:29:38.078Z,916.85
2019-06-10T03:30:52.357Z,916.83
2019-06-10T03:31:43.106Z,916.83
2019-06-10T03:32:42.750Z,916.79
2019-06-10T03:33:41.809Z,916.80
2019-06-10T03:34:43.021Z,916.79
2019-06-10T03:35:37.845Z,916.77
2019-06-10T03:36:37.815Z,916.76
2019-06-10T03:37:37.788Z,916.80
2019-06-10T03:38:37.732Z,916.76
2019-06-10T03:39:37.726Z,916.72
2019-06-10T03:40:37.684Z,916.77
2019-06-10T03:41:37.665Z,916.71
2019-06-10T03:42:37.610Z,916.71
2019-06-10T03:43:37.755Z,916.71
2019-06-10T03:44:38.755Z,916.71
2019-06-10T03:45:37.517Z,916.72
2019-06-10T03:46:37.452Z,916.67
2019-06-10T03:47:37.412Z,916.64
2019-06-10T03:48:37.385Z,916.61
2019-06-10T03:49:48.981Z,916.65
2019-06-10T03:50:37.316Z,916.63
2019-06-10T03:51:37.303Z,916.66
2019-06-10T03:52:37.244Z,916.63
2019-06-10T03:53:37.223Z,916.63
2019-06-10T03:54:37.187Z,916.65
2019-06-10T03:55:37.151Z,916.63
2019-06-10T03:56:37.095Z,916.63
2019-06-10T03:57:37.075Z,916.63
2019-06-10T03:58:37.042Z,916.65
2019-06-10T03:59:37.028Z,916.64
2019-06-10T04:00:37.199Z,916.63
2019-06-10T04:01:36.942Z,916.64
2019-06-10T04:02:36.900Z,916.64
2019-06-10T04:03:36.843Z,916.62
2019-06-10T04:04:36.832Z,916.65
2019-06-10T04:05:36.787Z,916.65
2019-06-10T04:06:36.762Z,916.64
2019-06-10T04:07:36.714Z,916.66
2019-06-10T04:08:36.691Z,916.62
2019-06-10T04:09:36.631Z,916.66
2019-06-10T04:10:36.617Z,916.65
2019-06-10T04:11:36.583Z,916.65
2019-06-10T04:12:36.524Z,916.67
2019-06-10T04:13:36.518Z,916.62
2019-06-10T04:14:36.455Z,916.63
2019-06-10T04:15:36.417Z,916.68
2019-06-10T04:16:36.407Z,916.68
2019-06-10T04:17:36.375Z,916.74
2019-06-10T04:18:36.336Z,916.70
2019-06-10T04:19:36.293Z,916.72
2019-06-10T04:20:36.269Z,916.74
2019-06-10T04:21:36.205Z,916.76
2019-06-10T04:22:36.191Z,916.75
2019-06-10T04:23:36.156Z,916.77
2019-06-10T04:24:36.098Z,916.71
2019-06-10T04:25:36.063Z,916.73
2019-06-10T04:26:36.057Z,916.75
2019-06-10T04:27:35.991Z,916.77
2019-06-10T04:28:35.980Z,916.75
2019-06-10T04:29:35.938Z,916.74
2019-06-10T04:30:35.886Z,916.78
2019-06-10T04:31:35.849Z,916.75
2019-06-10T04:32:35.840Z,916.76
2019-06-10T04:33:35.801Z,916.73
2019-06-10T04:34:35.743Z,916.74
2019-06-10T04:35:35.736Z,916.73
2019-06-10T04:36:35.676Z,916.72
2019-06-10T04:37:35.661Z,916.72
2019-06-10T04:38:35.624Z,916.70
2019-06-10T04:39:35.589Z,916.71
2019-06-10T04:40:35.533Z,916.66
2019-06-10T04:41:35.495Z,916.67
2019-06-10T04:42:35.468Z,916.66
2019-06-10T04:43:35.422Z,916.69
2019-06-10T04:44:35.401Z,916.69
2019-06-10T04:45:35.375Z,916.67
2019-06-10T04:46:35.340Z,916.68
2019-06-10T04:47:35.280Z,916.69
2019-06-10T04:48:35.271Z,916.68
2019-06-10T04:49:35.208Z,916.68
2019-06-10T04:50:42.275Z,916.71
2019-06-10T04:51:35.157Z,916.71
2019-06-10T04:52:35.139Z,916.74
2019-06-10T04:53:35.097Z,916.69
2019-06-10T04:54:35.051Z,916.71
2019-06-10T04:55:35.029Z,916.74
2019-06-10T04:56:34.967Z,916.74
2019-06-10T04:57:34.922Z,916.73
2019-06-10T04:58:34.909Z,916.72
2019-06-10T04:59:34.850Z,916.74
2019-06-10T05:00:34.816Z,916.69
2019-06-10T05:01:34.779Z,916.71
2019-06-10T05:02:34.745Z,916.70
2019-06-10T05:03:34.709Z,916.70
2019-06-10T05:04:34.680Z,916.65
2019-06-10T05:05:34.633Z,916.67
2019-06-10T05:06:34.770Z,916.63
2019-06-10T05:07:37.143Z,916.65
2019-06-10T05:08:34.554Z,916.65
2019-06-10T05:09:34.499Z,916.65
2019-06-10T05:10:34.475Z,916.69
2019-06-10T05:11:34.454Z,916.68
2019-06-10T05:12:34.757Z,916.72
2019-06-10T05:13:34.361Z,916.71
2019-06-10T05:14:34.337Z,916.68
2019-06-10T05:15:34.867Z,916.66
2019-06-10T05:16:35.923Z,916.63
2019-06-10T05:17:34.477Z,916.65
2019-06-10T05:18:34.385Z,916.65
2019-06-10T05:19:34.164Z,916.65
2019-06-10T05:20:51.118Z,916.61
2019-06-10T05:21:34.089Z,916.62
2019-06-10T05:22:34.053Z,916.63
2019-06-10T05:23:34.013Z,916.62
2019-06-10T05:24:34.476Z,916.67
2019-06-10T05:25:33.943Z,916.68
2019-06-10T05:26:33.890Z,916.68
2019-06-10T05:27:33.876Z,916.67
2019-06-10T05:28:34.355Z,916.69
2019-06-10T05:29:34.113Z,916.74
2019-06-10T05:30:34.050Z,916.73
2019-06-10T05:31:34.928Z,916.72
2019-06-10T05:32:33.693Z,916.74
2019-06-10T05:33:33.739Z,916.70
2019-06-10T05:34:34.713Z,916.73
2019-06-10T05:35:34.061Z,916.77
2019-06-10T05:36:34.602Z,916.80
2019-06-10T05:37:33.913Z,916.78
2019-06-10T05:38:35.349Z,916.81
2019-06-10T05:39:35.053Z,916.79
2019-06-10T05:40:34.272Z,916.81
2019-06-10T05:41:35.038Z,916.82
2019-06-10T05:42:35.861Z,916.80
2019-06-10T05:43:34.662Z,916.82
2019-06-10T05:44:34.528Z,916.83
2019-06-10T05:46:34.858Z,916.80
2019-06-10T05:47:35.857Z,916.77
2019-06-10T05:48:34.916Z,916.79
2019-06-10T05:49:35.652Z,916.79
2019-06-10T05:50:33.571Z,916.79
2019-06-10T05:51:35.114Z,916.76
2019-06-10T05:52:33.807Z,916.78
2019-06-10T05:53:35.012Z,916.78
2019-06-10T05:54:34.015Z,916.81
2019-06-10T05:55:35.025Z,916.80
2019-06-10T05:56:35.168Z,916.77
2019-06-10T05:57:35.378Z,916.75
2019-06-10T05:58:34.526Z,916.72
2019-06-10T05:59:34.516Z,916.71
2019-06-10T06:00:35.271Z,916.67
2019-06-10T06:01:38.000Z,916.67
2019-06-10T06:02:34.213Z,916.66
2019-06-10T06:03:36.224Z,916.61
2019-06-10T06:04:34.263Z,916.60
2019-06-10T06:05:34.221Z,916.64
2019-06-10T06:06:34.051Z,916.62
2019-06-10T06:07:34.337Z,916.63
2019-06-10T06:08:34.924Z,916.59
2019-06-10T06:09:33.885Z,916.65
2019-06-10T06:10:35.464Z,916.57
2019-06-10T06:11:34.027Z,916.51
2019-06-10T06:12:34.560Z,916.54
2019-06-10T06:13:34.096Z,916.54
2019-06-10T06:14:34.258Z,916.56
2019-06-10T06:15:34.476Z,916.52
2019-06-10T06:16:33.122Z,916.55
2019-06-10T06:17:32.776Z,916.57
2019-06-10T06:18:34.632Z,916.52
2019-06-10T06:19:35.015Z,916.53
2019-06-10T06:20:34.158Z,916.54
2019-06-10T06:21:39.700Z,916.54
2019-06-10T06:22:33.706Z,916.53
2019-06-10T06:23:33.882Z,916.52
2019-06-10T06:24:33.928Z,916.52
2019-06-10T06:25:37.292Z,916.50
2019-06-10T06:26:36.286Z,916.49
2019-06-10T06:27:33.830Z,916.52
2019-06-10T06:28:34.313Z,916.51
2019-06-10T06:29:33.455Z,916.52
2019-06-10T06:30:34.471Z,916.49
2019-06-10T06:31:33.297Z,916.48
2019-06-10T06:32:33.708Z,916.49
2019-06-10T06:33:34.684Z,916.50
2019-06-10T06:34:35.117Z,916.48
2019-06-10T06:35:35.141Z,916.50
2019-06-10T06:36:33.344Z,916.49
2019-06-10T06:37:35.668Z,916.50
2019-06-10T06:38:33.503Z,916.53
2019-06-10T06:39:33.408Z,916.55
2019-06-10T06:40:34.305Z,916.52
2019-06-10T06:41:32.040Z,916.51
2019-06-10T06:42:33.470Z,916.51
2019-06-10T06:43:36.425Z,916.52
2019-06-10T06:44:33.038Z,916.54
2019-06-10T06:45:34.032Z,916.56
2019-06-10T06:46:33.120Z,916.53
2019-06-10T06:47:34.002Z,916.54
2019-06-10T06:48:33.585Z,916.51
2019-06-10T06:49:32.869Z,916.50
2019-06-10T06:50:33.081Z,916.51
2019-06-10T06:51:46.830Z,916.49
2019-06-10T06:52:56.748Z,916.48
2019-06-10T06:53:38.588Z,916.46
2019-06-10T06:54:33.002Z,916.52
2019-06-10T06:55:31.307Z,916.53
2019-06-10T06:56:34.551Z,916.57
2019-06-10T06:57:33.249Z,916.55
2019-06-10T06:58:33.433Z,916.52
2019-06-10T06:59:33.800Z,916.50
2019-06-10T07:00:48.899Z,916.49
2019-06-10T07:01:32.967Z,916.52
2019-06-10T07:02:31.578Z,916.46
2019-06-10T07:03:32.207Z,916.50
2019-06-10T07:04:32.687Z,916.51
2019-06-10T07:05:32.303Z,916.53
2019-06-10T07:06:32.476Z,916.56
2019-06-10T07:07:32.694Z,916.56
2019-06-10T07:08:32.442Z,916.57
2019-06-10T07:09:30.335Z,916.57
2019-06-10T07:10:30.944Z,916.59
2019-06-10T07:11:32.927Z,916.61
2019-06-10T07:12:31.364Z,916.61
2019-06-10T07:13:31.489Z,916.55
2019-06-10T07:14:31.842Z,916.59
2019-06-10T07:15:31.111Z,916.58
2019-06-10T07:16:31.902Z,916.59
2019-06-10T07:17:29.922Z,916.61
2019-06-10T07:18:32.084Z,916.56
2019-06-10T07:19:29.844Z,916.61
2019-06-10T07:20:29.812Z,916.57
2019-06-10T07:21:29.785Z,916.55
2019-06-10T07:22:29.722Z,916.59
2019-06-10T07:23:29.679Z,916.58
2019-06-10T07:24:29.865Z,916.59
2019-06-10T07:25:32.144Z,916.56
2019-06-10T07:26:29.572Z,916.59
2019-06-10T07:27:29.554Z,916.62
2019-06-10T07:28:29.505Z,916.65
2019-06-10T07:29:29.477Z,916.59
2019-06-10T07:30:29.454Z,916.58
2019-06-10T07:31:32.164Z,916.56
2019-06-10T07:32:29.353Z,916.60
2019-06-10T07:33:29.333Z,916.60
2019-06-10T07:34:29.282Z,916.60
2019-06-10T07:35:29.247Z,916.60
2019-06-10T07:36:29.215Z,916.58
2019-06-10T07:37:29.173Z,916.54
2019-06-10T07:38:29.143Z,916.57
2019-06-10T07:39:29.099Z,916.61
2019-06-10T07:40:29.083Z,916.53
2019-06-10T07:41:29.050Z,916.56
2019-06-10T07:42:28.989Z,916.56
2019-06-10T07:43:28.962Z,916.53
2019-06-10T07:44:28.937Z,916.54
2019-06-10T07:45:28.907Z,916.53
2019-06-10T07:46:28.854Z,916.52
2019-06-10T07:47:28.808Z,916.54
2019-06-10T07:48:28.777Z,916.57
2019-06-10T07:49:28.734Z,916.55
2019-06-10T07:50:28.722Z,916.53
2019-06-10T07:51:28.886Z,916.52
2019-06-10T07:52:28.628Z,916.53
2019-06-10T07:53:28.595Z,916.58
2019-06-10T07:54:28.581Z,916.58
2019-06-10T07:55:28.621Z,916.57
2019-06-10T07:56:31.789Z,916.62
2019-06-10T07:57:28.681Z,916.62
2019-06-10T07:58:28.429Z,916.63
2019-06-10T07:59:28.375Z,916.63
2019-06-10T08:00:28.373Z,916.63
2019-06-10T08:01:28.302Z,916.65
2019-06-10T08:02:28.319Z,916.65
2019-06-10T08:03:28.230Z,916.67
2019-06-10T08:04:28.216Z,916.69
2019-06-10T08:05:28.173Z,916.73
2019-06-10T08:06:28.138Z,916.71
2019-06-10T08:07:28.116Z,916.75
2019-06-10T08:08:28.070Z,916.73
2019-06-10T08:09:28.031Z,916.75
2019-06-10T08:10:27.973Z,916.78
2019-06-10T08:11:27.940Z,916.75
2019-06-10T08:12:27.920Z,916.73
2019-06-10T08:13:27.865Z,916.73
2019-06-10T08:14:27.860Z,916.83
2019-06-10T08:15:27.809Z,916.80
2019-06-10T08:16:27.753Z,916.78
2019-06-10T08:17:27.740Z,916.81
2019-06-10T08:18:27.747Z,916.80
2019-06-10T08:19:34.754Z,916.81
2019-06-10T08:20:27.628Z,916.86
2019-06-10T08:21:27.570Z,916.87
2019-06-10T08:22:33.968Z,916.87
2019-06-10T08:23:27.530Z,916.89
2019-06-10T08:24:27.534Z,916.94
2019-06-10T08:25:27.448Z,917.00
2019-06-10T08:26:27.410Z,916.95
2019-06-10T08:27:27.350Z,916.94
2019-06-10T08:28:27.318Z,916.95
2019-06-10T08:29:27.630Z,916.91
2019-06-10T08:30:27.757Z,916.93
2019-06-10T08:31:27.209Z,916.95
2019-06-10T08:32:27.182Z,916.96
2019-06-10T08:33:27.155Z,916.94
2019-06-10T08:34:27.115Z,916.90
2019-06-10T08:35:37.958Z,916.91
2019-06-10T08:36:27.025Z,916.96
2019-06-10T08:37:27.010Z,916.93
2019-06-10T08:38:26.970Z,916.96
2019-06-10T08:39:26.933Z,916.99
2019-06-10T08:40:26.883Z,916.97
2019-06-10T08:41:26.847Z,917.05
2019-06-10T08:42:26.823Z,917.01
2019-06-10T08:43:26.790Z,916.99
2019-06-10T08:44:26.751Z,917.03
2019-06-10T08:45:26.956Z,917.02
2019-06-10T08:46:26.685Z,917.04
2019-06-10T08:47:26.630Z,917.07
2019-06-10T08:48:26.813Z,917.04
2019-06-10T08:49:26.569Z,917.07
2019-06-10T08:50:26.510Z,917.14
2019-06-10T08:51:26.649Z,917.10
2019-06-10T08:52:26.439Z,917.09
2019-06-10T08:53:26.404Z,917.09
2019-06-10T08:54:26.363Z,917.09
2019-06-10T08:55:26.355Z,917.07
2019-06-10T08:56:26.316Z,917.12
2019-06-10T08:57:26.287Z,917.11
2019-06-10T08:58:26.240Z,917.08
2019-06-10T08:59:26.188Z,917.11
2019-06-10T09:00:26.178Z,917.13
2019-06-10T09:01:26.118Z,917.14
2019-06-10T09:02:26.084Z,917.16
2019-06-10T09:03:26.267Z,917.13
2019-06-10T09:04:28.758Z,917.15
2019-06-10T09:05:26.073Z,917.13
2019-06-10T09:06:25.923Z,917.19
2019-06-10T09:07:25.920Z,917.15
2019-06-10T09:08:25.895Z,917.23
2019-06-10T09:09:25.816Z,917.26
2019-06-10T09:10:25.778Z,917.26
2019-06-10T09:11:25.761Z,917.26
2019-06-10T09:12:32.927Z,917.26
2019-06-10T09:13:25.669Z,917.26
2019-06-10T09:14:25.654Z,917.27
2019-06-10T09:15:25.618Z,917.25
2019-06-10T09:16:25.583Z,917.27
2019-06-10T09:17:25.524Z,917.31
2019-06-10T09:18:25.686Z,917.37
2019-06-10T09:19:25.455Z,917.37
2019-06-10T09:20:25.623Z,917.39
2019-06-10T09:21:25.399Z,917.41
2019-06-10T09:22:25.421Z,917.43
2019-06-10T09:23:25.775Z,917.41
2019-06-10T09:24:25.270Z,917.44
2019-06-10T09:25:25.251Z,917.40
2019-06-10T09:26:25.199Z,917.39
2019-06-10T09:27:27.078Z,917.44
2019-06-10T09:28:25.118Z,917.44
2019-06-10T09:29:25.093Z,917.42
2019-06-10T09:30:25.064Z,917.45
2019-06-10T09:31:25.037Z,917.50
2019-06-10T09:32:24.980Z,917.49
2019-06-10T09:33:24.931Z,917.48
2019-06-10T09:34:24.896Z,917.51
2019-06-10T09:35:24.869Z,917.52
2019-06-10T09:36:24.855Z,917.55
2019-06-10T09:37:24.797Z,917.54
2019-06-10T09:38:24.778Z,917.55
2019-06-10T09:39:24.719Z,917.54
2019-06-10T09:40:24.677Z,917.58
2019-06-10T09:41:36.529Z,917.63
2019-06-10T09:42:24.613Z,917.65
2019-06-10T09:43:24.590Z,917.68
2019-06-10T09:44:24.532Z,917.66
2019-06-10T09:45:24.490Z,917.70
2019-06-10T09:46:24.584Z,917.73
2019-06-10T09:47:24.452Z,917.78
2019-06-10T09:48:24.403Z,917.78
2019-06-10T09:49:24.353Z,917.79
2019-06-10T09:50:24.308Z,917.75
2019-06-10T09:51:24.274Z,917.80
2019-06-10T09:52:24.239Z,917.79
2019-06-10T09:53:33.508Z,917.83
2019-06-10T09:54:24.188Z,917.79
2019-06-10T09:55:24.148Z,917.84
2019-06-10T09:56:24.111Z,917.90
2019-06-10T09:57:24.083Z,917.92
2019-06-10T09:58:24.022Z,917.90
2019-06-10T09:59:23.981Z,917.96
2019-06-10T10:00:23.947Z,917.98
2019-06-10T10:01:24.681Z,917.97
2019-06-10T10:02:24.448Z,918.07
2019-06-10T10:03:24.044Z,918.10
2019-06-10T10:04:23.824Z,918.13
2019-06-10T10:05:23.967Z,918.22
2019-06-10T10:06:23.871Z,918.26
2019-06-10T10:07:23.716Z,918.25
2019-06-10T10:08:23.903Z,918.27
2019-06-10T10:09:23.672Z,918.30
2019-06-10T10:10:24.112Z,918.35
2019-06-10T10:11:24.930Z,918.34
2019-06-10T10:12:23.522Z,918.40
2019-06-10T10:13:23.489Z,918.40
2019-06-10T10:14:23.456Z,918.41
2019-06-10T10:15:30.607Z,918.43
2019-06-10T10:16:23.586Z,918.43
2019-06-10T10:17:23.363Z,918.50
2019-06-10T10:18:23.653Z,918.46
2019-06-10T10:19:23.302Z,918.52
2019-06-10T10:20:23.312Z,918.49
2019-06-10T10:21:23.383Z,918.53
2019-06-10T10:22:23.194Z,918.62
2019-06-10T10:23:23.162Z,918.68
2019-06-10T10:24:23.177Z,918.68
2019-06-10T10:25:23.526Z,918.70
2019-06-10T10:26:23.384Z,918.79
2019-06-10T10:27:23.355Z,918.90
2019-06-10T10:28:25.516Z,918.95
2019-06-10T10:29:23.002Z,918.99
2019-06-10T10:30:24.436Z,919.06
2019-06-10T10:31:23.935Z,919.17
2019-06-10T10:32:23.334Z,919.25
2019-06-10T10:33:25.370Z,919.28
2019-06-10T10:34:23.624Z,919.15
2019-06-10T10:35:24.256Z,919.07
2019-06-10T10:36:22.795Z,919.43
2019-06-10T10:37:23.058Z,919.72
2019-06-10T10:38:23.067Z,919.81
2019-06-10T10:39:24.646Z,919.44
2019-06-10T10:40:23.333Z,919.47
2019-06-10T10:41:24.007Z,919.79
2019-06-10T10:42:23.598Z,919.47
2019-06-10T10:43:32.474Z,919.51
2019-06-10T10:44:22.521Z,919.87
2019-06-10T10:45:22.736Z,919.73
2019-06-10T10:46:23.118Z,918.92
2019-06-10T10:47:25.174Z,918.64
2019-06-10T10:48:22.765Z,918.61
2019-06-10T10:49:22.429Z,918.66
2019-06-10T10:50:22.565Z,918.73
2019-06-10T10:51:23.083Z,919.68
2019-06-10T10:52:22.464Z,920.65
2019-06-10T10:53:23.802Z,920.00
2019-06-10T10:54:32.168Z,919.35
2019-06-10T10:55:22.347Z,918.92
2019-06-10T10:56:22.348Z,919.56
2019-06-10T10:57:23.172Z,919.66
2019-06-10T10:58:22.973Z,919.09
2019-06-10T10:59:22.119Z,918.85
2019-06-10T11:00:22.618Z,918.97
2019-06-10T11:01:23.616Z,919.02
2019-06-10T11:02:22.772Z,918.83
2019-06-10T11:03:22.915Z,918.81
2019-06-10T11:04:23.144Z,919.04
2019-06-10T11:05:23.145Z,919.32
2019-06-10T11:06:23.099Z,919.34
2019-06-10T11:07:22.334Z,919.00
2019-06-10T11:08:22.786Z,918.88
2019-06-10T11:09:22.353Z,918.98
2019-06-10T11:10:23.160Z,919.99
2019-06-10T11:11:23.024Z,921.36
2019-06-10T11:12:22.970Z,921.72
2019-06-10T11:13:22.347Z,921.21
2019-06-10T11:14:23.013Z,919.27
2019-06-10T11:15:23.173Z,919.16
2019-06-10T11:16:22.481Z,919.74
2019-06-10T11:17:22.740Z,921.06
2019-06-10T11:18:22.787Z,921.50
2019-06-10T11:19:22.241Z,921.37
2019-06-10T11:20:22.555Z,921.20
2019-06-10T11:21:22.852Z,921.23
2019-06-10T11:22:23.196Z,921.32
2019-06-10T11:23:22.838Z,921.37
2019-06-10T11:24:33.527Z,921.32
2019-06-10T11:25:23.099Z,921.21
2019-06-10T11:26:22.870Z,921.15
2019-06-10T11:27:22.755Z,921.09
2019-06-10T11:28:22.826Z,921.06
2019-06-10T11:29:21.149Z,920.94
2019-06-10T11:30:21.108Z,920.86
2019-06-10T11:31:22.694Z,920.78
2019-06-10T11:32:21.059Z,920.77
2019-06-10T11:33:22.732Z,920.63
2019-06-10T11:34:20.997Z,920.49
2019-06-10T11:35:21.723Z,920.45
2019-06-10T11:36:22.746Z,920.46
2019-06-10T11:37:22.991Z,920.43
2019-06-10T11:38:23.286Z,920.39
2019-06-10T11:39:22.546Z,920.41
2019-06-10T11:40:22.436Z,920.42
2019-06-10T11:41:23.478Z,920.42
2019-06-10T11:42:23.188Z,920.38
2019-06-10T11:43:22.658Z,920.41
2019-06-10T11:44:22.490Z,920.30
2019-06-10T11:45:22.208Z,920.33
2019-06-10T11:46:20.654Z,920.26
2019-06-10T11:47:22.825Z,920.28
2019-06-10T11:48:20.634Z,920.23
2019-06-10T11:49:23.623Z,920.17
2019-06-10T11:50:22.622Z,920.11
2019-06-10T11:51:23.255Z,920.10
2019-06-10T11:52:22.917Z,920.06
2019-06-10T11:53:22.718Z,920.00
2019-06-10T11:54:23.217Z,919.96
2019-06-10T11:55:23.075Z,919.90
2019-06-10T11:56:22.248Z,919.91
2019-06-10T11:57:20.335Z,919.87
2019-06-10T11:58:22.322Z,919.85
2019-06-10T11:59:20.309Z,919.83
2019-06-10T12:00:20.267Z,919.85
2019-06-10T12:01:22.664Z,919.85
2019-06-10T12:02:22.313Z,919.88
2019-06-10T12:03:22.855Z,919.86
2019-06-10T12:04:20.158Z,919.86
2019-06-10T12:05:21.130Z,919.86
2019-06-10T12:06:22.661Z,919.88
2019-06-10T12:07:22.224Z,919.91
2019-06-10T12:08:20.443Z,919.96
2019-06-10T12:09:20.766Z,919.97
2019-06-10T12:10:19.975Z,920.07
2019-06-10T12:11:22.827Z,920.08
2019-06-10T12:12:22.036Z,920.11
2019-06-10T12:13:22.456Z,920.13
2019-06-10T12:14:19.865Z,920.12
2019-06-10T12:15:19.866Z,920.20
2019-06-10T12:17:12.282Z,920.25
2019-06-10T12:17:40.070Z,920.32
2019-06-10T12:18:22.717Z,920.36
2019-06-10T12:19:19.990Z,920.49
2019-06-10T12:20:19.744Z,920.56
2019-06-10T12:21:19.703Z,920.62
2019-06-10T12:22:19.675Z,920.77
2019-06-10T12:23:21.982Z,920.93
2019-06-10T12:24:19.763Z,921.10
2019-06-10T12:25:32.478Z,921.20
2019-06-10T12:26:19.559Z,921.40
2019-06-10T12:27:19.763Z,921.59
2019-06-10T12:28:19.497Z,921.81
2019-06-10T12:29:19.477Z,922.05
2019-06-10T12:30:19.648Z,922.42
2019-06-10T12:31:19.468Z,922.99
2019-06-10T12:32:19.408Z,923.69
2019-06-10T12:33:24.741Z,924.20
2019-06-10T12:34:19.447Z,924.53
2019-06-10T12:35:19.325Z,924.93